Yithion, Greece
Current Conditions -  °F | °C
As of 12:20 PM on Friday 24 Oct 2014 (Local Time) from LGKL Reporting Station
Thunderstorm Thunderstorm  
Wind Chill: 59°   Ceiling: 3000
Heat Index: 59°   Visibility: 4mi
Dew Point: 55°   Wind: 5mph
Humidity: 88%   Direction: 270°W
Pressure: 29.65"   Gusts: NA
Location:  36.76°N, 22.56°E
Report Text: LGKL 241020Z 27004KT 6000 -TSRA FEW018CB SCT020TCU BKN030 15/13 Q1004
Loading
Personal Weather Stations






























Interactive Weather Map
Tropical Storm Tracking
New forecast layout! Learn more

10-Day Weather Forecast

Advertisements
Track Severe Weather on mobile